createdAt,value
2019-06-07T00:01:58.435Z,50.63
2019-06-07T00:04:29.049Z,50.74
2019-06-07T00:06:59.363Z,50.85
2019-06-07T00:09:29.577Z,50.96
2019-06-07T00:12:00.220Z,51.07
2019-06-07T00:14:30.579Z,51.17
2019-06-07T00:17:00.844Z,51.27
2019-06-07T00:19:31.121Z,51.38
2019-06-07T00:22:30.064Z,51.49
2019-06-07T00:24:33.278Z,51.60
2019-06-07T00:27:03.506Z,51.70
2019-06-07T00:29:33.831Z,51.81
2019-06-07T00:32:04.175Z,51.92
2019-06-07T00:34:35.696Z,52.01
2019-06-07T00:37:07.101Z,52.14
2019-06-07T00:39:37.551Z,52.25
2019-06-07T00:42:07.897Z,52.38
2019-06-07T00:44:38.109Z,52.48
2019-06-07T00:47:08.347Z,52.59
2019-06-07T00:49:41.355Z,52.72
2019-06-07T00:52:18.211Z,52.83
2019-06-07T00:54:43.244Z,52.94
2019-06-07T00:57:16.637Z,53.06
2019-06-07T00:59:45.590Z,53.16
2019-06-07T01:02:16.694Z,53.28
2019-06-07T01:04:48.156Z,53.39
2019-06-07T01:07:20.048Z,53.51
2019-06-07T01:09:51.010Z,53.62
2019-06-07T01:12:22.102Z,53.75
2019-06-07T01:14:55.517Z,53.84
2019-06-07T01:17:41.461Z,53.97
2019-06-07T01:19:59.918Z,54.09
2019-06-07T01:22:30.211Z,54.20
2019-06-07T01:25:00.453Z,54.32
2019-06-07T01:27:30.733Z,54.44
2019-06-07T01:30:01.643Z,54.55
2019-06-07T01:32:34.342Z,54.65
2019-06-07T01:35:08.712Z,54.77
2019-06-07T01:37:39.354Z,54.88
2019-06-07T01:40:13.307Z,55.00
2019-06-07T01:42:44.211Z,55.13
2019-06-07T01:45:17.918Z,55.25
2019-06-07T01:47:47.750Z,55.41
2019-06-07T01:50:23.336Z,55.48
2019-06-07T01:52:53.455Z,55.61
2019-06-07T01:55:31.699Z,55.73
2019-06-07T01:57:59.064Z,55.85
2019-06-07T02:00:32.692Z,55.97
2019-06-07T02:03:02.756Z,56.10
2019-06-07T02:05:39.110Z,56.21
2019-06-07T02:08:09.337Z,56.34
2019-06-07T02:10:39.642Z,56.47
2019-06-07T02:13:09.965Z,56.58
2019-06-07T02:15:40.464Z,56.72
2019-06-07T02:18:10.652Z,56.84
2019-06-07T02:20:40.897Z,56.97
2019-06-07T02:23:11.118Z,57.09
2019-06-07T02:25:48.594Z,57.23
2019-06-07T02:28:31.932Z,57.34
2019-06-07T02:30:58.862Z,57.47
2019-06-07T02:33:18.456Z,57.61
2019-06-07T02:35:48.772Z,57.72
2019-06-07T02:38:23.099Z,57.86
2019-06-07T02:40:55.052Z,57.98
2019-06-07T02:43:28.252Z,58.11
2019-06-07T02:46:21.272Z,58.23
2019-06-07T02:48:36.189Z,58.35
2019-06-07T02:51:02.261Z,58.47
2019-06-07T02:53:39.541Z,58.60
2019-06-07T02:56:37.856Z,58.70
2019-06-07T02:58:41.573Z,58.82
2019-06-07T03:01:10.137Z,58.94
2019-06-07T03:03:42.004Z,59.05
2019-06-07T03:06:14.740Z,59.16
2019-06-07T03:08:47.104Z,59.26
2019-06-07T03:11:18.863Z,59.37
2019-06-07T03:13:50.885Z,59.45
2019-06-07T03:16:26.258Z,59.58
2019-06-07T03:19:02.591Z,59.67
2019-06-07T03:21:36.420Z,59.77
2019-06-07T03:24:06.964Z,59.84
2019-06-07T03:27:31.444Z,59.95
2019-06-07T03:29:09.698Z,60.03
2019-06-07T03:31:46.680Z,60.11
2019-06-07T03:34:11.959Z,60.21
2019-06-07T03:36:54.545Z,60.26
2019-06-07T03:39:28.017Z,60.35
2019-06-07T03:42:06.408Z,60.44
2019-06-07T03:44:33.954Z,60.50
2019-06-07T03:47:04.453Z,60.59
2019-06-07T03:49:48.644Z,60.64
2019-06-07T03:52:20.862Z,60.68
2019-06-07T03:54:54.676Z,60.73
2019-06-07T03:57:25.463Z,60.77
2019-06-07T03:59:55.759Z,60.81
2019-06-07T04:02:30.357Z,60.84
2019-06-07T04:05:02.853Z,60.87
2019-06-07T04:07:36.067Z,60.89
2019-06-07T04:10:09.124Z,60.90
2019-06-07T04:12:43.396Z,60.93
2019-06-07T04:15:12.282Z,60.95
2019-06-07T04:18:00.751Z,60.99
2019-06-07T04:20:14.774Z,61.01
2019-06-07T04:22:46.933Z,61.00
2019-06-07T04:25:17.747Z,61.04
2019-06-07T04:27:48.002Z,61.06
2019-06-07T04:30:43.890Z,61.06
2019-06-07T04:33:14.957Z,61.08
2019-06-07T04:35:45.990Z,61.09
2019-06-07T04:38:17.836Z,61.12
2019-06-07T04:40:49.293Z,61.13
2019-06-07T04:43:19.708Z,61.15
2019-06-07T04:45:51.672Z,61.15
2019-06-07T04:48:23.346Z,61.16
2019-06-07T04:50:55.840Z,61.17
2019-06-07T04:53:26.102Z,61.17
2019-06-07T04:55:56.798Z,61.17
2019-06-07T04:58:27.022Z,61.15
2019-06-07T05:01:03.211Z,61.16
2019-06-07T05:03:31.388Z,61.15
2019-06-07T05:06:01.867Z,61.15
2019-06-07T05:08:35.130Z,61.13
2019-06-07T05:11:04.173Z,61.11
2019-06-07T05:13:37.819Z,61.11
2019-06-07T05:16:06.912Z,61.04
2019-06-07T05:18:40.225Z,61.01
2019-06-07T05:21:09.116Z,60.99
2019-06-07T05:24:05.732Z,60.94
2019-06-07T05:26:11.293Z,60.94
2019-06-07T05:28:43.007Z,60.89
2019-06-07T05:31:13.970Z,60.87
2019-06-07T05:33:44.339Z,60.84
2019-06-07T05:36:14.566Z,60.78
2019-06-07T05:38:45.189Z,60.74
2019-06-07T05:41:16.993Z,60.68
2019-06-07T05:44:01.119Z,60.64
2019-06-07T05:46:20.885Z,60.59
2019-06-07T05:48:51.875Z,60.53
2019-06-07T05:51:22.286Z,60.45
2019-06-07T05:53:53.106Z,60.39
2019-06-07T05:56:23.822Z,60.33
2019-06-07T05:58:56.094Z,60.25
2019-06-07T06:01:55.739Z,60.18
2019-06-07T06:04:00.055Z,60.09
2019-06-07T06:06:30.656Z,60.02
2019-06-07T06:09:13.394Z,59.95
2019-06-07T06:11:45.885Z,59.87
2019-06-07T06:14:08.360Z,59.78
2019-06-07T06:16:39.762Z,59.70
2019-06-07T06:19:10.707Z,59.63
2019-06-07T06:21:44.844Z,59.53
2019-06-07T06:24:13.748Z,59.45
2019-06-07T06:26:51.337Z,59.37
2019-06-07T06:29:16.007Z,59.30
2019-06-07T06:32:35.814Z,59.19
2019-06-07T06:34:19.966Z,59.08
2019-06-07T06:36:52.401Z,58.94
2019-06-07T06:39:22.701Z,58.82
2019-06-07T06:42:00.843Z,58.70
2019-06-07T06:44:27.283Z,58.57
2019-06-07T06:46:58.676Z,58.45
2019-06-07T06:49:29.262Z,58.30
2019-06-07T06:51:59.845Z,58.14
2019-06-07T06:54:40.776Z,58.01
2019-06-07T06:57:19.045Z,57.77
2019-06-07T06:59:39.312Z,57.58
2019-06-07T07:02:09.011Z,57.18
2019-06-07T07:04:41.904Z,56.61
2019-06-07T07:07:12.428Z,55.80
2019-06-07T07:09:47.615Z,54.83
2019-06-07T07:12:16.183Z,53.77
2019-06-07T07:14:49.258Z,52.60
2019-06-07T07:17:20.279Z,51.34
2019-06-07T07:19:52.983Z,50.08
2019-06-07T07:22:23.988Z,48.74
2019-06-07T07:24:54.967Z,47.35
2019-06-07T07:27:25.503Z,45.99
2019-06-07T07:30:31.269Z,44.54
2019-06-07T07:32:28.394Z,43.26
2019-06-07T07:35:00.755Z,41.99
2019-06-07T07:37:32.206Z,40.88
2019-06-07T07:40:53.548Z,39.65
2019-06-07T07:42:34.776Z,38.55
2019-06-07T07:45:06.626Z,37.64
2019-06-07T07:47:57.654Z,36.61
2019-06-07T07:50:10.227Z,35.63
2019-06-07T07:52:40.931Z,34.66
2019-06-07T07:55:11.834Z,33.72
2019-06-07T07:57:42.398Z,32.80
2019-06-07T08:00:49.440Z,31.93
2019-06-07T08:02:48.901Z,31.15
2019-06-07T08:05:28.819Z,30.32
2019-06-07T08:07:56.490Z,29.60
2019-06-07T08:10:24.449Z,28.90
2019-06-07T08:13:14.451Z,28.11
2019-06-07T08:15:27.017Z,27.50
2019-06-07T08:18:03.187Z,26.83
2019-06-07T08:20:29.699Z,26.43
2019-06-07T08:23:01.385Z,25.88
2019-06-07T08:25:32.450Z,25.32
2019-06-07T08:28:03.096Z,24.90
2019-06-07T08:30:55.059Z,24.42
2019-06-07T08:33:25.495Z,23.99
2019-06-07T08:36:06.154Z,23.69
2019-06-07T08:38:29.859Z,23.35
2019-06-07T08:40:42.171Z,23.01
2019-06-07T08:43:20.280Z,22.54
2019-06-07T08:45:44.921Z,22.16
2019-06-07T08:48:27.593Z,21.90
2019-06-07T08:50:47.071Z,21.50
2019-06-07T08:53:17.421Z,21.19
2019-06-07T08:55:48.137Z,20.89
2019-06-07T08:58:18.551Z,20.58
2019-06-07T09:00:49.384Z,20.28
2019-06-07T09:03:21.350Z,20.05
2019-06-07T09:05:54.200Z,19.81
2019-06-07T09:08:30.334Z,19.59
2019-06-07T09:10:58.917Z,19.38
2019-06-07T09:13:28.914Z,19.16
2019-06-07T09:16:04.929Z,18.98
2019-06-07T09:18:42.004Z,18.82
2019-06-07T09:21:07.695Z,18.68
2019-06-07T09:23:35.818Z,18.54
2019-06-07T09:26:15.975Z,18.40
2019-06-07T09:28:38.049Z,18.28
2019-06-07T09:31:10.389Z,18.16
2019-06-07T09:33:41.003Z,18.12
2019-06-07T09:36:13.156Z,18.06
2019-06-07T09:38:44.635Z,17.98
2019-06-07T09:41:15.300Z,17.99
2019-06-07T09:44:01.764Z,17.94
2019-06-07T09:46:18.738Z,17.86
2019-06-07T09:51:21.103Z,17.78
2019-06-07T09:53:52.037Z,17.76
2019-06-07T09:56:22.354Z,17.69
2019-06-07T09:58:55.343Z,17.65
2019-06-07T10:01:25.701Z,17.61
2019-06-07T10:04:02.317Z,17.61
2019-06-07T10:06:29.623Z,17.58
2019-06-07T10:10:04.668Z,17.74
2019-06-07T10:11:34.329Z,17.89
2019-06-07T10:14:06.838Z,18.02
2019-06-07T10:16:46.925Z,18.16
2019-06-07T10:19:10.993Z,18.30
2019-06-07T10:21:41.631Z,18.48
2019-06-07T10:24:11.971Z,18.65
2019-06-07T10:26:42.553Z,18.82
2019-06-07T10:29:12.869Z,19.00
2019-06-07T10:31:43.443Z,19.15
2019-06-07T10:34:13.784Z,19.32
2019-06-07T10:36:44.214Z,19.52
2019-06-07T10:39:14.479Z,19.73
2019-06-07T10:41:44.718Z,19.89
2019-06-07T10:44:15.324Z,20.07
2019-06-07T10:46:45.983Z,20.23
2019-06-07T10:49:16.649Z,20.39
2019-06-07T10:51:48.637Z,20.52
2019-06-07T10:54:26.697Z,20.68
2019-06-07T10:56:51.809Z,20.84
2019-06-07T10:59:22.164Z,21.00
2019-06-07T11:01:54.220Z,21.16
2019-06-07T11:04:24.938Z,21.30
2019-06-07T11:06:55.246Z,21.42
2019-06-07T11:09:25.856Z,21.58
2019-06-07T11:11:56.491Z,21.73
2019-06-07T11:14:27.894Z,21.87
2019-06-07T11:16:58.118Z,22.04
2019-06-07T11:19:28.742Z,22.21
2019-06-07T11:21:59.387Z,22.37
2019-06-07T11:24:29.736Z,22.54
2019-06-07T11:26:59.955Z,22.69
2019-06-07T11:29:30.555Z,22.86
2019-06-07T11:32:00.816Z,22.99
2019-06-07T11:34:31.044Z,23.13
2019-06-07T11:37:01.491Z,23.24
2019-06-07T11:39:32.025Z,23.37
2019-06-07T11:42:02.342Z,23.47
2019-06-07T11:44:32.577Z,23.59
2019-06-07T11:47:04.343Z,23.68
2019-06-07T11:49:35.109Z,23.80
2019-06-07T11:52:05.670Z,23.94
2019-06-07T11:54:36.511Z,24.07
2019-06-07T11:57:07.169Z,24.18
2019-06-07T11:59:37.675Z,24.32
2019-06-07T12:02:09.135Z,24.41
2019-06-07T12:04:39.964Z,24.53
2019-06-07T12:07:12.082Z,24.64
2019-06-07T12:09:55.520Z,24.78
2019-06-07T12:12:14.563Z,24.89
2019-06-07T12:14:46.516Z,25.02
2019-06-07T12:17:17.668Z,25.16
2019-06-07T12:19:48.362Z,25.27
2019-06-07T12:22:20.043Z,25.38
2019-06-07T12:24:51.047Z,25.48
2019-06-07T12:27:21.887Z,25.58
2019-06-07T12:29:52.172Z,25.71
2019-06-07T12:32:22.410Z,25.79
2019-06-07T12:34:53.033Z,25.90
2019-06-07T12:37:39.207Z,26.00
2019-06-07T12:39:55.632Z,26.16
2019-06-07T12:42:25.929Z,26.24
2019-06-07T12:44:56.151Z,26.32
2019-06-07T12:47:26.413Z,26.44
2019-06-07T12:49:57.014Z,26.53
2019-06-07T12:52:27.713Z,26.63
2019-06-07T12:54:58.166Z,26.69
2019-06-07T12:57:28.442Z,26.78
2019-06-07T12:59:58.713Z,26.85
2019-06-07T13:02:29.332Z,26.95
2019-06-07T13:05:04.322Z,27.05
2019-06-07T13:07:31.907Z,27.11
2019-06-07T13:10:02.497Z,27.17
2019-06-07T13:12:32.866Z,27.22
2019-06-07T13:15:04.411Z,27.30
2019-06-07T13:17:35.118Z,27.36
2019-06-07T13:20:09.299Z,27.44
2019-06-07T13:22:39.537Z,27.49
2019-06-07T13:25:10.352Z,27.55
2019-06-07T13:27:40.892Z,27.59
2019-06-07T13:30:13.447Z,27.62
2019-06-07T13:32:44.102Z,27.67
2019-06-07T13:35:18.114Z,27.73
2019-06-07T13:37:47.928Z,27.76
2019-06-07T13:40:19.700Z,27.82
2019-06-07T13:42:51.455Z,27.85
2019-06-07T13:45:22.391Z,27.90
2019-06-07T13:47:52.807Z,27.94
2019-06-07T13:50:24.260Z,27.99
2019-06-07T13:52:54.498Z,28.02
2019-06-07T13:55:25.878Z,28.05
2019-06-07T13:57:56.602Z,28.06
2019-06-07T14:00:26.899Z,28.11
2019-06-07T14:02:57.171Z,28.17
2019-06-07T14:05:29.045Z,28.21
2019-06-07T14:07:59.943Z,28.25
2019-06-07T14:10:30.340Z,28.31
2019-06-07T14:13:00.580Z,28.37
2019-06-07T14:15:33.986Z,28.41
2019-06-07T14:18:02.841Z,28.45
2019-06-07T14:20:34.745Z,28.50
2019-06-07T14:23:05.657Z,28.58
2019-06-07T14:25:36.179Z,28.66
2019-06-07T14:28:11.412Z,28.72
2019-06-07T14:30:39.488Z,28.83
2019-06-07T14:33:10.239Z,28.90
2019-06-07T14:35:40.571Z,29.00
2019-06-07T14:38:12.133Z,29.07
2019-06-07T14:40:42.800Z,29.18
2019-06-07T14:43:13.233Z,29.27
2019-06-07T14:45:44.092Z,29.36
2019-06-07T14:48:15.882Z,29.44
2019-06-07T14:50:46.393Z,29.52
2019-06-07T14:53:17.221Z,29.62
2019-06-07T14:55:48.278Z,29.70
2019-06-07T14:58:18.989Z,29.83
2019-06-07T15:00:49.390Z,29.93
2019-06-07T15:03:21.983Z,30.00
2019-06-07T15:05:52.276Z,30.11
2019-06-07T15:08:23.074Z,30.19
2019-06-07T15:10:53.724Z,30.25
2019-06-07T15:13:24.034Z,30.30
2019-06-07T15:15:54.345Z,30.35
2019-06-07T15:18:25.022Z,30.41
2019-06-07T15:20:55.697Z,30.46
2019-06-07T15:23:27.060Z,30.48
2019-06-07T15:25:57.579Z,30.53
2019-06-07T15:28:29.997Z,30.57
2019-06-07T15:31:00.261Z,30.56
2019-06-07T15:33:31.846Z,30.58
2019-06-07T15:36:03.344Z,30.63
2019-06-07T15:38:34.790Z,30.67
2019-06-07T15:41:05.542Z,30.72
2019-06-07T15:43:37.426Z,30.77
2019-06-07T15:46:08.146Z,30.83
2019-06-07T15:48:40.072Z,30.91
2019-06-07T15:51:10.981Z,30.97
2019-06-07T15:53:44.587Z,31.07
2019-06-07T15:56:14.568Z,31.16
2019-06-07T15:58:44.920Z,31.22
2019-06-07T16:01:15.883Z,31.31
2019-06-07T16:03:46.405Z,31.41
2019-06-07T16:06:19.473Z,31.50
2019-06-07T16:08:49.998Z,31.58
2019-06-07T16:11:20.687Z,31.70
2019-06-07T16:13:51.346Z,31.77
2019-06-07T16:16:22.107Z,31.86
2019-06-07T16:18:52.770Z,31.94
2019-06-07T16:21:23.098Z,32.02
2019-06-07T16:23:53.722Z,32.07
2019-06-07T16:26:25.629Z,32.17
2019-06-07T16:28:57.340Z,32.20
2019-06-07T16:31:28.527Z,32.24
2019-06-07T16:33:58.902Z,32.30
2019-06-07T16:36:29.587Z,32.37
2019-06-07T16:39:00.259Z,32.42
2019-06-07T16:41:31.104Z,32.52
2019-06-07T16:44:01.537Z,32.59
2019-06-07T16:46:32.487Z,32.67
2019-06-07T16:49:02.790Z,32.76
2019-06-07T16:51:33.153Z,32.86
2019-06-07T16:54:03.399Z,32.96
2019-06-07T16:56:33.666Z,33.08
2019-06-07T16:59:04.330Z,33.15
2019-06-07T17:01:34.732Z,33.28
2019-06-07T17:04:05.538Z,33.38
2019-06-07T17:06:35.847Z,33.48
2019-06-07T17:09:07.987Z,33.59
2019-06-07T17:11:38.403Z,33.69
2019-06-07T17:14:08.625Z,33.77
2019-06-07T17:16:39.034Z,33.87
2019-06-07T17:19:09.352Z,33.98
2019-06-07T17:21:40.944Z,34.08
2019-06-07T17:24:11.672Z,34.20
2019-06-07T17:26:43.360Z,34.33
2019-06-07T17:29:15.388Z,34.42
2019-06-07T17:31:46.430Z,34.55
2019-06-07T17:34:17.396Z,34.67
2019-06-07T17:36:48.759Z,34.80
2019-06-07T17:39:19.444Z,34.94
2019-06-07T17:42:00.004Z,35.06
2019-06-07T17:44:21.783Z,35.18
2019-06-07T17:46:52.368Z,35.32
2019-06-07T17:49:23.050Z,35.44
2019-06-07T17:51:54.545Z,35.58
2019-06-07T17:54:24.740Z,35.72
2019-06-07T17:56:54.989Z,35.86
2019-06-07T17:59:25.224Z,36.00
2019-06-07T18:02:13.594Z,36.13
2019-06-07T18:04:27.510Z,36.27
2019-06-07T18:06:58.299Z,36.41
2019-06-07T18:09:30.149Z,36.55
2019-06-07T18:12:00.493Z,36.69
2019-06-07T18:14:31.255Z,36.84
2019-06-07T18:17:02.122Z,37.01
2019-06-07T18:19:32.487Z,37.19
2019-06-07T18:22:02.770Z,37.34
2019-06-07T18:24:33.036Z,37.49
2019-06-07T18:27:06.974Z,37.64
2019-06-07T18:29:35.900Z,37.81
2019-06-07T18:32:06.137Z,37.97
2019-06-07T18:34:37.557Z,38.12
2019-06-07T18:37:07.932Z,38.30
2019-06-07T18:39:38.665Z,38.45
2019-06-07T18:42:09.348Z,38.60
2019-06-07T18:44:39.714Z,38.77
2019-06-07T18:47:10.337Z,38.93
2019-06-07T18:49:41.092Z,39.09
2019-06-07T18:52:16.845Z,39.26
2019-06-07T18:54:48.856Z,39.42
2019-06-07T18:57:19.287Z,39.62
2019-06-07T18:59:50.169Z,39.80
2019-06-07T19:02:20.716Z,39.99
2019-06-07T19:04:52.198Z,40.18
2019-06-07T19:07:24.377Z,40.36
2019-06-07T19:09:55.114Z,40.54
2019-06-07T19:12:25.794Z,40.72
2019-06-07T19:14:57.523Z,40.90
2019-06-07T19:17:28.496Z,41.08
2019-06-07T19:19:58.882Z,41.25
2019-06-07T19:22:29.485Z,41.41
2019-06-07T19:25:00.580Z,41.58
2019-06-07T19:27:33.177Z,41.76
2019-06-07T19:30:05.723Z,41.92
2019-06-07T19:32:36.322Z,42.11
2019-06-07T19:35:08.516Z,42.29
2019-06-07T19:37:38.810Z,42.48
2019-06-07T19:40:10.764Z,42.68
2019-06-07T19:42:41.089Z,42.85
2019-06-07T19:45:31.021Z,43.03
2019-06-07T19:47:44.288Z,43.19
2019-06-07T19:50:17.098Z,43.38
2019-06-07T19:52:47.347Z,43.58
2019-06-07T19:55:17.982Z,43.74
2019-06-07T19:57:50.136Z,43.91
2019-06-07T20:00:21.844Z,44.10
2019-06-07T20:02:52.155Z,44.27
2019-06-07T20:05:22.782Z,44.45
2019-06-07T20:07:54.455Z,44.63
2019-06-07T20:10:25.176Z,44.80
2019-06-07T20:12:56.580Z,45.03
2019-06-07T20:15:29.427Z,45.20
2019-06-07T20:17:59.507Z,45.38
2019-06-07T20:20:30.164Z,45.56
2019-06-07T20:23:01.040Z,45.75
2019-06-07T20:25:31.523Z,45.92
2019-06-07T20:28:03.373Z,46.10
2019-06-07T20:30:34.021Z,46.29
2019-06-07T20:33:05.991Z,46.48
2019-06-07T20:35:36.252Z,46.67
2019-06-07T20:38:06.538Z,46.86
2019-06-07T20:40:37.413Z,47.02
2019-06-07T20:43:08.250Z,47.22
2019-06-07T20:45:39.125Z,47.39
2019-06-07T20:48:09.785Z,47.57
2019-06-07T20:50:40.445Z,47.75
2019-06-07T20:53:10.797Z,47.91
2019-06-07T20:55:41.142Z,48.06
2019-06-07T20:58:11.440Z,48.24
2019-06-07T21:00:42.077Z,48.41
2019-06-07T21:03:13.023Z,48.57
2019-06-07T21:05:43.343Z,48.71
2019-06-07T21:08:13.596Z,48.89
2019-06-07T21:10:43.887Z,49.05
2019-06-07T21:13:14.148Z,49.21
2019-06-07T21:15:48.817Z,49.37
2019-06-07T21:18:19.855Z,49.53
2019-06-07T21:20:48.735Z,49.68
2019-06-07T21:23:19.049Z,49.83
2019-06-07T21:25:49.308Z,49.99
2019-06-07T21:28:19.724Z,50.14
2019-06-07T21:30:50.297Z,50.28
2019-06-07T21:33:20.979Z,50.45
2019-06-07T21:35:51.270Z,50.60
2019-06-07T21:38:21.576Z,50.75
2019-06-07T21:40:51.836Z,50.89
2019-06-07T21:43:22.268Z,51.05
2019-06-07T21:46:04.715Z,51.20
2019-06-07T21:48:24.994Z,51.36
2019-06-07T21:50:55.686Z,51.51
2019-06-07T21:53:26.358Z,51.65
2019-06-07T21:55:57.029Z,51.83
2019-06-07T21:58:27.350Z,51.99
2019-06-07T22:01:04.690Z,52.13
2019-06-07T22:03:38.054Z,52.26
2019-06-07T22:06:09.652Z,52.42
2019-06-07T22:08:40.635Z,52.57
2019-06-07T22:11:12.301Z,52.73
2019-06-07T22:13:43.472Z,52.88
2019-06-07T22:16:26.806Z,53.01
2019-06-07T22:18:46.055Z,53.18
2019-06-07T22:21:16.315Z,53.33
2019-06-07T22:23:47.060Z,53.48
2019-06-07T22:26:17.786Z,53.62
2019-06-07T22:28:48.206Z,53.80
2019-06-07T22:31:19.256Z,53.94
2019-06-07T22:33:49.937Z,54.08
2019-06-07T22:36:20.480Z,54.24
2019-06-07T22:38:50.814Z,54.41
2019-06-07T22:41:21.028Z,54.54
2019-06-07T22:43:51.717Z,54.67
2019-06-07T22:46:36.429Z,54.83
2019-06-07T22:48:54.533Z,54.99
2019-06-07T22:51:25.378Z,55.14
2019-06-07T22:53:56.059Z,55.29
2019-06-07T22:56:28.023Z,55.46
2019-06-07T22:58:58.673Z,55.61
2019-06-07T23:01:29.133Z,55.74
2019-06-07T23:04:01.037Z,55.88
2019-06-07T23:06:31.782Z,56.05
2019-06-07T23:09:02.516Z,56.17
2019-06-07T23:11:34.323Z,56.32
2019-06-07T23:14:04.698Z,56.47
2019-06-07T23:16:35.008Z,56.61
2019-06-07T23:19:05.330Z,56.75
2019-06-07T23:21:35.939Z,56.89
2019-06-07T23:24:06.596Z,57.03
2019-06-07T23:26:36.913Z,57.17
2019-06-07T23:29:07.238Z,57.32
2019-06-07T23:31:37.472Z,57.46
2019-06-07T23:34:07.706Z,57.61
2019-06-07T23:36:38.179Z,57.76
2019-06-07T23:39:09.366Z,57.88
2019-06-07T23:41:39.657Z,58.05
2019-06-07T23:44:11.051Z,58.17
2019-06-07T23:46:41.737Z,58.31
2019-06-07T23:49:14.041Z,58.45
2019-06-07T23:51:44.680Z,58.58
2019-06-07T23:54:15.670Z,58.71
2019-06-07T23:56:46.079Z,58.86
2019-06-07T23:59:16.312Z,58.99
